createdAt,value
2019-04-10T00:02:26.259Z,73.70
2019-04-10T00:04:55.866Z,73.93
2019-04-10T00:07:25.721Z,73.75
2019-04-10T00:09:55.378Z,73.55
2019-04-10T00:12:25.453Z,73.69
2019-04-10T00:14:55.213Z,73.35
2019-04-10T00:17:25.021Z,73.56
2019-04-10T00:19:54.644Z,73.64
2019-04-10T00:22:24.344Z,73.64
2019-04-10T00:24:54.581Z,73.59
2019-04-10T00:27:24.104Z,73.63
2019-04-10T00:29:54.399Z,73.72
2019-04-10T00:32:24.263Z,73.95
2019-04-10T00:34:54.064Z,73.93
2019-04-10T00:37:28.498Z,73.82
2019-04-10T00:39:55.110Z,74.07
2019-04-10T00:42:27.425Z,74.21
2019-04-10T00:44:57.262Z,74.14
2019-04-10T00:47:27.078Z,73.91
2019-04-10T00:49:56.611Z,73.64
2019-04-10T00:52:26.287Z,73.82
2019-04-10T00:54:55.813Z,73.77
2019-04-10T00:57:25.518Z,73.79
2019-04-10T00:59:55.026Z,73.71
2019-04-10T01:02:26.862Z,73.66
2019-04-10T01:04:56.518Z,73.70
2019-04-10T01:07:35.949Z,73.75
2019-04-10T01:09:57.621Z,73.66
2019-04-10T01:12:27.979Z,73.70
2019-04-10T01:14:58.197Z,73.38
2019-04-10T01:17:28.542Z,73.54
2019-04-10T01:19:58.587Z,73.45
2019-04-10T01:22:28.335Z,73.50
2019-04-10T01:24:57.870Z,73.36
2019-04-10T01:27:27.809Z,73.50
2019-04-10T01:29:57.958Z,73.69
2019-04-10T01:32:29.950Z,73.72
2019-04-10T01:35:00.226Z,73.94
2019-04-10T01:37:29.846Z,73.98
2019-04-10T01:39:59.382Z,73.98
2019-04-10T01:42:28.914Z,73.91
2019-04-10T01:45:01.328Z,73.87
2019-04-10T01:47:31.048Z,74.06
2019-04-10T01:50:00.779Z,73.98
2019-04-10T01:52:31.136Z,74.22
2019-04-10T01:55:03.179Z,74.16
2019-04-10T01:57:32.505Z,74.05
2019-04-10T02:00:02.745Z,74.03
2019-04-10T02:02:34.018Z,73.91
2019-04-10T02:05:04.119Z,73.93
2019-04-10T02:07:34.070Z,73.90
2019-04-10T02:10:05.908Z,74.05
2019-04-10T02:12:35.526Z,73.95
2019-04-10T02:15:07.096Z,73.92
2019-04-10T02:17:38.904Z,74.06
2019-04-10T02:20:10.531Z,74.05
2019-04-10T02:22:40.538Z,73.99
2019-04-10T02:25:11.806Z,74.19
2019-04-10T02:27:42.554Z,74.11
2019-04-10T02:30:16.365Z,74.01
2019-04-10T02:32:47.742Z,74.07
2019-04-10T02:35:18.926Z,74.18
2019-04-10T02:37:52.393Z,74.28
2019-04-10T02:40:19.427Z,74.20
2019-04-10T02:42:51.858Z,74.29
2019-04-10T02:45:21.949Z,74.41
2019-04-10T02:47:52.827Z,74.41
2019-04-10T02:50:22.823Z,74.39
2019-04-10T02:52:52.450Z,74.28
2019-04-10T02:55:23.037Z,74.43
2019-04-10T02:57:54.217Z,74.48
2019-04-10T03:00:25.048Z,74.38
2019-04-10T03:02:57.151Z,74.15
2019-04-10T03:05:27.486Z,74.35
2019-04-10T03:07:58.226Z,74.44
2019-04-10T03:10:38.293Z,74.47
2019-04-10T03:13:00.675Z,74.26
2019-04-10T03:15:31.504Z,74.13
2019-04-10T03:18:01.877Z,74.23
2019-04-10T03:20:32.164Z,74.28
2019-04-10T03:23:02.040Z,74.31
2019-04-10T03:25:31.601Z,74.46
2019-04-10T03:28:01.208Z,74.66
2019-04-10T03:30:32.406Z,74.44
2019-04-10T03:33:26.107Z,74.06
2019-04-10T03:35:53.201Z,74.41
2019-04-10T03:38:23.713Z,74.70
2019-04-10T03:40:53.788Z,74.70
2019-04-10T03:43:23.390Z,74.86
2019-04-10T03:45:53.013Z,74.50
2019-04-10T03:48:23.041Z,74.66
2019-04-10T03:50:52.802Z,74.49
2019-04-10T03:53:23.251Z,74.44
2019-04-10T03:55:53.695Z,74.39
2019-04-10T03:58:23.273Z,74.58
2019-04-10T04:00:52.841Z,74.37
2019-04-10T04:03:22.594Z,74.27
2019-04-10T04:05:53.117Z,74.33
2019-04-10T04:08:23.557Z,74.25
2019-04-10T04:10:53.323Z,74.14
2019-04-10T04:13:23.687Z,74.27
2019-04-10T04:15:53.443Z,74.45
2019-04-10T04:18:22.980Z,74.32
2019-04-10T04:20:52.998Z,74.41
2019-04-10T04:23:22.613Z,74.26
2019-04-10T04:25:52.237Z,74.12
2019-04-10T04:28:21.828Z,73.80
2019-04-10T04:30:53.309Z,73.86
2019-04-10T04:33:23.223Z,73.99
2019-04-10T04:35:53.244Z,74.05
2019-04-10T04:38:23.643Z,73.97
2019-04-10T04:40:54.786Z,73.86
2019-04-10T04:43:25.124Z,73.57
2019-04-10T04:45:55.429Z,73.62
2019-04-10T04:48:25.313Z,73.59
2019-04-10T04:50:56.666Z,73.63
2019-04-10T04:53:26.501Z,73.38
2019-04-10T04:55:56.121Z,73.34
2019-04-10T04:58:26.346Z,73.37
2019-04-10T05:00:56.466Z,73.60
2019-04-10T05:03:27.003Z,73.52
2019-04-10T05:05:56.694Z,73.31
2019-04-10T05:08:26.225Z,73.42
2019-04-10T05:10:56.072Z,73.62
2019-04-10T05:13:26.376Z,73.44
2019-04-10T05:15:55.927Z,73.59
2019-04-10T05:18:25.507Z,74.10
2019-04-10T05:20:55.039Z,73.81
2019-04-10T05:23:24.554Z,73.01
2019-04-10T05:25:54.223Z,71.21
2019-04-10T05:28:24.324Z,71.13
2019-04-10T05:30:54.681Z,70.01
2019-04-10T05:33:24.710Z,69.31
2019-04-10T05:35:55.001Z,68.82
2019-04-10T05:38:24.957Z,68.22
2019-04-10T05:40:55.193Z,68.08
2019-04-10T05:43:24.734Z,68.05
2019-04-10T05:45:55.142Z,68.40
2019-04-10T05:48:25.435Z,68.54
2019-04-10T05:51:02.302Z,69.14
2019-04-10T05:53:27.256Z,69.04
2019-04-10T05:55:57.911Z,69.14
2019-04-10T05:58:27.510Z,68.14
2019-04-10T06:00:58.900Z,68.44
2019-04-10T06:03:28.441Z,68.47
2019-04-10T06:06:00.460Z,68.70
2019-04-10T06:08:29.308Z,68.93
2019-04-10T06:10:58.857Z,69.68
2019-04-10T06:13:28.654Z,70.55
2019-04-10T06:15:59.374Z,70.52
2019-04-10T06:18:29.263Z,70.49
2019-04-10T06:20:58.972Z,71.00
2019-04-10T06:23:29.607Z,70.69
2019-04-10T06:26:00.516Z,70.87
2019-04-10T06:28:30.967Z,70.94
2019-04-10T06:31:00.962Z,71.70
2019-04-10T06:33:31.749Z,71.69
2019-04-10T06:36:02.761Z,71.71
2019-04-10T06:38:32.381Z,71.64
2019-04-10T06:41:02.207Z,71.70
2019-04-10T06:43:32.842Z,71.71
2019-04-10T06:46:02.640Z,71.88
2019-04-10T06:48:32.232Z,71.45
2019-04-10T06:51:02.144Z,71.76
2019-04-10T06:53:31.912Z,71.72
2019-04-10T06:56:02.891Z,71.99
2019-04-10T06:58:32.562Z,72.00
2019-04-10T07:01:02.265Z,71.95
2019-04-10T07:03:47.906Z,72.32
2019-04-10T07:06:12.268Z,72.43
2019-04-10T07:08:34.917Z,72.40
2019-04-10T07:11:09.051Z,72.49
2019-04-10T07:13:39.496Z,72.30
2019-04-10T07:16:09.490Z,72.50
2019-04-10T07:18:39.671Z,72.06
2019-04-10T07:21:10.615Z,71.83
2019-04-10T07:23:40.769Z,72.43
2019-04-10T07:26:10.474Z,71.43
2019-04-10T07:28:43.973Z,71.71
2019-04-10T07:31:11.672Z,71.87
2019-04-10T07:33:42.492Z,71.94
2019-04-10T07:36:14.007Z,71.57
2019-04-10T07:38:43.723Z,71.25
2019-04-10T07:41:19.425Z,71.01
2019-04-10T07:43:44.802Z,70.95
2019-04-10T07:46:15.219Z,71.17
2019-04-10T07:48:45.580Z,71.24
2019-04-10T07:51:15.304Z,70.97
2019-04-10T07:53:44.940Z,70.59
2019-04-10T07:56:17.988Z,70.46
2019-04-10T07:58:46.095Z,70.17
2019-04-10T08:01:16.194Z,70.61
2019-04-10T08:03:46.529Z,70.20
2019-04-10T08:06:16.193Z,70.26
2019-04-10T08:08:46.638Z,70.38
2019-04-10T08:11:17.505Z,69.92
2019-04-10T08:13:47.235Z,70.01
2019-04-10T08:16:17.068Z,70.37
2019-04-10T08:18:47.760Z,70.66
2019-04-10T08:21:17.729Z,70.77
2019-04-10T08:23:48.554Z,70.35
2019-04-10T08:26:18.363Z,70.11
2019-04-10T08:28:48.021Z,69.56
2019-04-10T08:31:17.713Z,69.35
2019-04-10T08:33:47.420Z,69.54
2019-04-10T08:36:17.214Z,71.09
2019-04-10T08:38:46.876Z,70.60
2019-04-10T08:41:17.186Z,70.58
2019-04-10T08:43:46.785Z,69.87
2019-04-10T08:46:17.680Z,70.09
2019-04-10T08:48:47.684Z,70.24
2019-04-10T08:51:17.421Z,70.10
2019-04-10T08:53:46.988Z,69.81
2019-04-10T08:56:16.582Z,70.09
2019-04-10T08:58:48.233Z,69.95
2019-04-10T09:01:17.577Z,70.45
2019-04-10T09:03:47.236Z,70.23
2019-04-10T09:06:17.529Z,69.73
2019-04-10T09:08:47.237Z,69.83
2019-04-10T09:11:25.575Z,69.51
2019-04-10T09:13:48.620Z,69.22
2019-04-10T09:16:18.447Z,68.69
2019-04-10T09:18:49.547Z,69.31
2019-04-10T09:21:19.460Z,68.61
2019-04-10T09:23:52.848Z,68.72
2019-04-10T09:26:20.385Z,68.25
2019-04-10T09:28:50.764Z,68.53
2019-04-10T09:31:20.446Z,67.96
2019-04-10T09:33:50.040Z,68.40
2019-04-10T09:36:19.904Z,68.57
2019-04-10T09:38:50.678Z,68.72
2019-04-10T09:41:21.621Z,68.26
2019-04-10T09:43:51.205Z,68.77
2019-04-10T09:46:20.789Z,68.63
2019-04-10T09:48:50.345Z,68.92
2019-04-10T09:51:19.859Z,68.88
2019-04-10T09:53:49.454Z,68.06
2019-04-10T09:56:19.349Z,67.28
2019-04-10T09:58:49.214Z,66.93
2019-04-10T10:01:19.949Z,66.52
2019-04-10T10:03:50.714Z,66.73
2019-04-10T10:06:27.441Z,66.12
2019-04-10T10:08:52.307Z,66.14
2019-04-10T10:11:22.229Z,66.13
2019-04-10T10:13:52.261Z,66.33
2019-04-10T10:16:23.851Z,65.84
2019-04-10T10:18:53.976Z,66.02
2019-04-10T10:21:24.096Z,65.73
2019-04-10T10:23:54.065Z,65.30
2019-04-10T10:26:24.003Z,65.68
2019-04-10T10:28:54.606Z,65.23
2019-04-10T10:31:26.259Z,64.64
2019-04-10T10:33:56.535Z,64.22
2019-04-10T10:36:36.654Z,63.65
2019-04-10T10:39:06.886Z,63.44
2019-04-10T10:41:29.780Z,63.49
2019-04-10T10:44:00.521Z,63.03
2019-04-10T10:46:31.375Z,63.52
2019-04-10T10:49:02.201Z,63.67
2019-04-10T10:51:32.788Z,63.66
2019-04-10T10:54:04.088Z,63.01
2019-04-10T10:56:34.209Z,62.55
2019-04-10T10:59:05.017Z,63.00
2019-04-10T11:01:35.841Z,63.07
2019-04-10T11:04:06.758Z,62.53
2019-04-10T11:06:49.741Z,62.62
2019-04-10T11:09:12.599Z,62.26
2019-04-10T11:11:42.257Z,61.96
2019-04-10T11:14:13.194Z,61.99
2019-04-10T11:16:42.977Z,61.35
2019-04-10T11:19:13.046Z,60.54
2019-04-10T11:21:42.986Z,61.36
2019-04-10T11:24:13.664Z,61.35
2019-04-10T11:26:44.035Z,60.76
2019-04-10T11:29:14.356Z,61.08
2019-04-10T11:31:45.784Z,61.71
2019-04-10T11:34:16.586Z,61.28
2019-04-10T11:36:46.537Z,60.93
2019-04-10T11:41:49.106Z,58.48
2019-04-10T11:44:21.261Z,59.08
2019-04-10T11:46:52.667Z,59.47
2019-04-10T11:49:22.850Z,59.50
2019-04-10T11:51:55.802Z,59.13
2019-04-10T11:54:27.812Z,58.59
2019-04-10T11:56:58.633Z,57.18
2019-04-10T11:59:28.661Z,57.19
2019-04-10T12:02:02.827Z,58.08
2019-04-10T12:04:32.412Z,58.27
2019-04-10T12:07:02.082Z,59.37
2019-04-10T12:12:03.628Z,58.66
2019-04-10T12:14:33.234Z,58.07
2019-04-10T12:17:03.322Z,58.54
2019-04-10T12:19:33.289Z,58.44
2019-04-10T12:22:03.177Z,57.72
2019-04-10T12:24:32.937Z,58.13
2019-04-10T12:27:02.612Z,58.08
2019-04-10T12:29:33.011Z,58.47
2019-04-10T12:32:02.654Z,59.03
2019-04-10T12:34:32.264Z,59.31
2019-04-10T12:37:02.854Z,59.13
2019-04-10T12:39:32.644Z,59.81
2019-04-10T12:42:02.368Z,60.19
2019-04-10T12:44:33.797Z,59.21
2019-04-10T12:47:03.753Z,59.08
2019-04-10T12:49:33.908Z,59.25
2019-04-10T12:52:03.770Z,59.65
2019-04-10T12:54:33.553Z,59.80
2019-04-10T12:57:04.257Z,59.50
2019-04-10T12:59:33.977Z,59.10
2019-04-10T13:02:04.951Z,58.58
2019-04-10T13:04:34.617Z,59.92
2019-04-10T13:07:05.340Z,59.44
2019-04-10T13:09:35.196Z,58.38
2019-04-10T13:12:04.959Z,58.89
2019-04-10T13:14:34.886Z,58.68
2019-04-10T13:17:04.771Z,58.66
2019-04-10T13:19:35.647Z,58.96
2019-04-10T13:22:05.346Z,58.59
2019-04-10T13:24:35.396Z,58.10
2019-04-10T13:27:06.194Z,58.27
2019-04-10T13:29:36.407Z,58.51
2019-04-10T13:32:07.623Z,58.28
2019-04-10T13:34:37.475Z,57.70
2019-04-10T13:37:08.260Z,58.38
2019-04-10T13:39:37.946Z,58.18
2019-04-10T13:42:07.718Z,58.70
2019-04-10T13:44:38.340Z,58.37
2019-04-10T13:47:09.048Z,58.06
2019-04-10T13:49:38.924Z,57.73
2019-04-10T13:52:08.567Z,57.94
2019-04-10T13:54:38.886Z,58.59
2019-04-10T13:57:08.515Z,57.17
2019-04-10T13:59:39.366Z,57.19
2019-04-10T14:02:11.104Z,56.79
2019-04-10T14:04:40.886Z,57.02
2019-04-10T14:07:11.547Z,57.26
2019-04-10T14:09:48.023Z,57.27
2019-04-10T14:12:12.941Z,57.46
2019-04-10T14:14:42.674Z,57.81
2019-04-10T14:17:13.124Z,56.51
2019-04-10T14:19:42.911Z,57.15
2019-04-10T14:22:13.483Z,56.72
2019-04-10T14:24:46.400Z,56.06
2019-04-10T14:27:16.346Z,56.78
2019-04-10T14:29:46.917Z,55.96
2019-04-10T14:32:18.470Z,55.53
2019-04-10T14:34:48.906Z,55.68
2019-04-10T14:37:19.070Z,54.95
2019-04-10T14:39:49.381Z,54.75
2019-04-10T14:42:19.188Z,54.97
2019-04-10T14:44:50.975Z,54.66
2019-04-10T14:47:20.356Z,54.04
2019-04-10T14:49:52.229Z,54.20
2019-04-10T14:52:21.311Z,55.19
2019-04-10T14:54:52.199Z,54.24
2019-04-10T14:57:23.054Z,53.89
2019-04-10T14:59:52.849Z,54.08
2019-04-10T15:02:22.580Z,53.80
2019-04-10T15:04:53.032Z,53.98
2019-04-10T15:07:22.960Z,53.99
2019-04-10T15:09:52.586Z,53.74
2019-04-10T15:12:22.659Z,53.75
2019-04-10T15:14:52.430Z,53.52
2019-04-10T15:17:23.077Z,53.17
2019-04-10T15:19:53.707Z,53.65
2019-04-10T15:22:23.527Z,53.76
2019-04-10T15:24:53.887Z,54.17
2019-04-10T15:27:24.945Z,54.33
2019-04-10T15:29:54.771Z,54.23
2019-04-10T15:32:25.259Z,54.47
2019-04-10T15:34:55.781Z,55.23
2019-04-10T15:37:25.534Z,55.38
2019-04-10T15:39:55.144Z,55.54
2019-04-10T15:42:24.838Z,55.29
2019-04-10T15:44:54.529Z,55.63
2019-04-10T15:47:24.936Z,55.87
2019-04-10T15:49:54.628Z,56.23
2019-04-10T15:52:24.175Z,55.78
2019-04-10T15:54:53.989Z,56.23
2019-04-10T15:57:24.899Z,55.89
2019-04-10T15:59:54.644Z,55.59
2019-04-10T16:02:24.296Z,55.44
2019-04-10T16:04:55.159Z,54.72
2019-04-10T16:07:25.202Z,54.83
2019-04-10T16:09:57.663Z,54.78
2019-04-10T16:12:27.690Z,54.36
2019-04-10T16:14:57.331Z,54.03
2019-04-10T16:17:34.418Z,54.16
2019-04-10T16:20:19.688Z,53.95
2019-04-10T16:22:51.118Z,54.05
2019-04-10T16:25:30.121Z,53.96
2019-04-10T16:28:02.064Z,53.42
2019-04-10T16:30:32.962Z,54.09
2019-04-10T16:33:03.048Z,53.88
2019-04-10T16:35:35.254Z,54.16
2019-04-10T16:38:06.853Z,55.23
2019-04-10T16:40:38.269Z,56.31
2019-04-10T16:43:08.184Z,55.34
2019-04-10T16:45:38.527Z,54.79
2019-04-10T16:48:08.700Z,55.00
2019-04-10T16:50:38.536Z,54.93
2019-04-10T16:53:08.274Z,54.27
2019-04-10T16:55:38.116Z,54.03
2019-04-10T16:58:07.958Z,54.98
2019-04-10T17:00:37.878Z,56.17
2019-04-10T17:03:07.660Z,56.64
2019-04-10T17:05:37.711Z,57.78
2019-04-10T17:08:07.832Z,58.06
2019-04-10T17:10:38.705Z,57.66
2019-04-10T17:13:08.993Z,57.99
2019-04-10T17:15:39.870Z,58.69
2019-04-10T17:18:10.727Z,59.22
2019-04-10T17:20:40.598Z,59.31
2019-04-10T17:23:10.321Z,61.13
2019-04-10T17:25:40.158Z,60.85
2019-04-10T17:28:10.239Z,61.45
2019-04-10T17:30:40.120Z,60.71
2019-04-10T17:33:11.074Z,61.71
2019-04-10T17:35:40.756Z,61.81
2019-04-10T17:38:10.342Z,61.67
2019-04-10T17:40:46.425Z,60.59
2019-04-10T17:43:12.701Z,60.67
2019-04-10T17:45:42.897Z,61.94
2019-04-10T17:48:13.577Z,61.34
2019-04-10T17:50:43.716Z,61.58
2019-04-10T17:53:15.209Z,61.89
2019-04-10T17:55:45.227Z,62.62
2019-04-10T17:58:14.957Z,62.77
2019-04-10T18:00:47.764Z,61.90
2019-04-10T18:03:18.620Z,62.38
2019-04-10T18:05:48.822Z,63.19
2019-04-10T18:08:18.910Z,63.30
2019-04-10T18:10:52.501Z,64.48
2019-04-10T18:13:20.548Z,64.10
2019-04-10T18:15:50.603Z,64.28
2019-04-10T18:18:20.372Z,65.14
2019-04-10T18:20:51.128Z,65.20
2019-04-10T18:23:20.798Z,65.32
2019-04-10T18:25:50.527Z,65.28
2019-04-10T18:28:21.321Z,65.58
2019-04-10T18:30:52.249Z,65.58
2019-04-10T18:33:22.451Z,65.32
2019-04-10T18:35:53.232Z,65.95
2019-04-10T18:38:25.787Z,65.83
2019-04-10T18:41:02.275Z,65.61
2019-04-10T18:43:27.230Z,65.24
2019-04-10T18:46:07.882Z,65.22
2019-04-10T18:48:32.509Z,64.96
2019-04-10T18:51:02.383Z,64.81
2019-04-10T18:53:33.083Z,64.23
2019-04-10T18:56:03.064Z,64.55
2019-04-10T18:58:38.040Z,65.16
2019-04-10T19:01:14.227Z,65.01
2019-04-10T19:04:01.460Z,65.47
2019-04-10T19:06:30.588Z,65.37
2019-04-10T19:09:10.203Z,65.05
2019-04-10T19:11:35.419Z,65.39
2019-04-10T19:14:05.974Z,65.30
2019-04-10T19:16:37.347Z,65.25
2019-04-10T19:19:08.114Z,64.52
2019-04-10T19:21:39.907Z,64.59
2019-04-10T19:24:09.815Z,65.26
2019-04-10T19:26:40.002Z,64.66
2019-04-10T19:29:09.815Z,64.67
2019-04-10T19:31:41.446Z,64.13
2019-04-10T19:34:11.267Z,64.52
2019-04-10T19:36:41.678Z,64.19
2019-04-10T19:39:11.547Z,64.25
2019-04-10T19:41:41.958Z,64.60
2019-04-10T19:44:12.881Z,64.82
2019-04-10T19:46:43.934Z,64.59
2019-04-10T19:49:14.300Z,64.25
2019-04-10T19:51:44.134Z,64.73
2019-04-10T19:54:13.868Z,64.83
2019-04-10T19:56:44.624Z,64.55
2019-04-10T19:59:14.607Z,62.62
2019-04-10T20:01:44.554Z,63.23
2019-04-10T20:04:14.538Z,62.93
2019-04-10T20:06:44.766Z,58.86
2019-04-10T20:09:14.874Z,59.48
2019-04-10T20:11:49.688Z,58.95
2019-04-10T20:14:16.865Z,56.95
2019-04-10T20:16:47.849Z,54.18
2019-04-10T20:19:17.639Z,54.65
2019-04-10T20:21:48.210Z,53.50
2019-04-10T20:24:18.857Z,53.39
2019-04-10T20:26:49.660Z,52.44
2019-04-10T20:29:19.580Z,52.90
2019-04-10T20:31:50.959Z,52.99
2019-04-10T20:34:21.241Z,53.40
2019-04-10T20:36:51.189Z,52.35
2019-04-10T20:39:21.124Z,53.49
2019-04-10T20:41:55.062Z,53.73
2019-04-10T20:44:24.864Z,53.40
2019-04-10T20:46:54.853Z,52.78
2019-04-10T20:49:25.869Z,52.70
2019-04-10T20:51:55.751Z,53.03
2019-04-10T20:54:25.534Z,52.53
2019-04-10T20:56:55.074Z,52.41
2019-04-10T20:59:24.739Z,52.95
2019-04-10T21:01:55.717Z,53.15
2019-04-10T21:04:25.659Z,52.17
2019-04-10T21:06:56.505Z,52.33
2019-04-10T21:09:26.278Z,52.02
2019-04-10T21:12:02.227Z,53.07
2019-04-10T21:14:27.591Z,53.55
2019-04-10T21:16:58.373Z,53.42
2019-04-10T21:19:28.959Z,53.61
2019-04-10T21:21:59.550Z,54.04
2019-04-10T21:24:29.483Z,54.69
2019-04-10T21:26:59.145Z,54.59
2019-04-10T21:29:46.515Z,54.74
2019-04-10T21:32:34.576Z,53.26
2019-04-10T21:35:07.452Z,53.29
2019-04-10T21:37:38.184Z,53.44
2019-04-10T21:40:09.910Z,53.77
2019-04-10T21:42:39.715Z,54.36
2019-04-10T21:45:09.748Z,54.92
2019-04-10T21:47:39.342Z,54.18
2019-04-10T21:50:11.125Z,54.15
2019-04-10T21:52:41.391Z,53.58
2019-04-10T21:55:11.336Z,53.99
2019-04-10T21:57:40.849Z,54.23
2019-04-10T22:00:12.270Z,54.05
2019-04-10T22:02:42.217Z,54.09
2019-04-10T22:05:13.035Z,53.52
2019-04-10T22:07:48.110Z,53.72
2019-04-10T22:10:26.473Z,53.66
2019-04-10T22:12:57.495Z,54.05
2019-04-10T22:15:37.942Z,54.09
2019-04-10T22:18:07.820Z,53.94
2019-04-10T22:20:37.614Z,54.24
2019-04-10T22:23:07.619Z,54.15
2019-04-10T22:25:37.480Z,54.25
2019-04-10T22:28:08.322Z,54.61
2019-04-10T22:30:38.250Z,54.55
2019-04-10T22:33:08.096Z,54.61
2019-04-10T22:35:37.910Z,54.87
2019-04-10T22:38:07.673Z,54.88
2019-04-10T22:40:38.533Z,55.12
2019-04-10T22:43:08.464Z,54.95
2019-04-10T22:45:38.521Z,55.24
2019-04-10T22:48:08.498Z,55.21
2019-04-10T22:50:38.637Z,55.11
2019-04-10T22:53:08.937Z,55.03
2019-04-10T22:55:38.886Z,55.14
2019-04-10T22:58:08.891Z,55.32
2019-04-10T23:00:39.717Z,55.04
2019-04-10T23:03:09.581Z,55.49
2019-04-10T23:05:40.548Z,55.32
2019-04-10T23:08:11.517Z,55.44
2019-04-10T23:10:41.406Z,55.42
2019-04-10T23:13:11.990Z,55.54
2019-04-10T23:15:43.979Z,55.87
2019-04-10T23:18:13.289Z,56.07
2019-04-10T23:20:43.848Z,56.15
2019-04-10T23:23:13.429Z,56.05
2019-04-10T23:25:43.137Z,55.89
2019-04-10T23:28:13.540Z,55.73
2019-04-10T23:30:43.476Z,55.53
2019-04-10T23:33:13.038Z,55.31
2019-04-10T23:35:43.379Z,55.48
2019-04-10T23:38:13.237Z,55.51
2019-04-10T23:40:43.238Z,55.70
2019-04-10T23:43:15.453Z,55.67
2019-04-10T23:45:44.180Z,55.31
2019-04-10T23:48:14.837Z,55.70
2019-04-10T23:50:44.592Z,55.89
2019-04-10T23:53:14.183Z,55.99
2019-04-10T23:55:43.791Z,55.93
2019-04-10T23:58:13.922Z,56.26
